sensor_id;sensor_type;location;lat;lon;timestamp;temperature;humidity
76384;SHT30;65204;48.606;7.598;2023-12-28T00:00:05;11.29;52.39
76384;SHT30;65204;48.606;7.598;2023-12-28T00:00:36;11.33;52.43
76384;SHT30;65204;48.606;7.598;2023-12-28T00:01:06;11.33;52.37
76384;SHT30;65204;48.606;7.598;2023-12-28T00:01:37;11.31;52.50
76384;SHT30;65204;48.606;7.598;2023-12-28T00:02:07;11.30;52.46
76384;SHT30;65204;48.606;7.598;2023-12-28T00:02:38;11.31;52.56
76384;SHT30;65204;48.606;7.598;2023-12-28T00:03:08;11.33;52.44
76384;SHT30;65204;48.606;7.598;2023-12-28T00:03:39;11.34;52.67
76384;SHT30;65204;48.606;7.598;2023-12-28T00:04:11;11.33;52.56
76384;SHT30;65204;48.606;7.598;2023-12-28T00:04:41;11.34;52.62
76384;SHT30;65204;48.606;7.598;2023-12-28T00:05:12;11.33;52.77
76384;SHT30;65204;48.606;7.598;2023-12-28T00:05:42;11.33;52.50
76384;SHT30;65204;48.606;7.598;2023-12-28T00:06:13;11.31;52.33
76384;SHT30;65204;48.606;7.598;2023-12-28T00:06:43;11.33;52.35
76384;SHT30;65204;48.606;7.598;2023-12-28T00:07:13;11.31;52.64
76384;SHT30;65204;48.606;7.598;2023-12-28T00:07:47;11.33;52.71
76384;SHT30;65204;48.606;7.598;2023-12-28T00:08:18;11.34;52.61
76384;SHT30;65204;48.606;7.598;2023-12-28T00:08:48;11.30;52.43
76384;SHT30;65204;48.606;7.598;2023-12-28T00:09:19;11.33;52.29
76384;SHT30;65204;48.606;7.598;2023-12-28T00:09:49;11.30;52.42
76384;SHT30;65204;48.606;7.598;2023-12-28T00:10:19;11.33;52.42
76384;SHT30;65204;48.606;7.598;2023-12-28T00:10:50;11.36;52.42
76384;SHT30;65204;48.606;7.598;2023-12-28T00:11:20;11.34;52.38
76384;SHT30;65204;48.606;7.598;2023-12-28T00:11:51;11.34;52.78
76384;SHT30;65204;48.606;7.598;2023-12-28T00:12:21;11.34;52.69
76384;SHT30;65204;48.606;7.598;2023-12-28T00:12:53;11.34;52.47
76384;SHT30;65204;48.606;7.598;2023-12-28T00:13:24;11.37;52.42
76384;SHT30;65204;48.606;7.598;2023-12-28T00:13:54;11.37;52.33
76384;SHT30;65204;48.606;7.598;2023-12-28T00:14:25;11.37;52.26
76384;SHT30;65204;48.606;7.598;2023-12-28T00:14:56;11.37;52.16
76384;SHT30;65204;48.606;7.598;2023-12-28T00:15:26;11.36;52.17
76384;SHT30;65204;48.606;7.598;2023-12-28T00:15:56;11.34;52.25
76384;SHT30;65204;48.606;7.598;2023-12-28T00:16:27;11.37;52.33
76384;SHT30;65204;48.606;7.598;2023-12-28T00:16:58;11.37;52.38
76384;SHT30;65204;48.606;7.598;2023-12-28T00:17:28;11.37;52.27
76384;SHT30;65204;48.606;7.598;2023-12-28T00:17:58;11.36;52.10
76384;SHT30;65204;48.606;7.598;2023-12-28T00:18:28;11.37;52.09
76384;SHT30;65204;48.606;7.598;2023-12-28T00:18:59;11.36;52.30
76384;SHT30;65204;48.606;7.598;2023-12-28T00:19:32;11.39;52.42
76384;SHT30;65204;48.606;7.598;2023-12-28T00:20:02;11.37;52.26
76384;SHT30;65204;48.606;7.598;2023-12-28T00:20:32;11.39;52.18
76384;SHT30;65204;48.606;7.598;2023-12-28T00:21:03;11.39;52.28
76384;SHT30;65204;48.606;7.598;2023-12-28T00:21:33;11.37;52.33
76384;SHT30;65204;48.606;7.598;2023-12-28T00:22:04;11.37;52.16
76384;SHT30;65204;48.606;7.598;2023-12-28T00:22:34;11.36;52.11
76384;SHT30;65204;48.606;7.598;2023-12-28T00:23:07;11.36;52.10
76384;SHT30;65204;48.606;7.598;2023-12-28T00:23:37;11.37;52.01
76384;SHT30;65204;48.606;7.598;2023-12-28T00:24:08;11.37;51.96
76384;SHT30;65204;48.606;7.598;2023-12-28T00:24:38;11.39;51.95
76384;SHT30;65204;48.606;7.598;2023-12-28T00:25:09;11.39;51.87
76384;SHT30;65204;48.606;7.598;2023-12-28T00:25:39;11.41;51.82
76384;SHT30;65204;48.606;7.598;2023-12-28T00:26:09;11.39;51.80
76384;SHT30;65204;48.606;7.598;2023-12-28T00:26:40;11.39;51.83
76384;SHT30;65204;48.606;7.598;2023-12-28T00:27:10;11.40;52.01
76384;SHT30;65204;48.606;7.598;2023-12-28T00:27:41;11.41;52.43
76384;SHT30;65204;48.606;7.598;2023-12-28T00:28:11;11.41;52.30
76384;SHT30;65204;48.606;7.598;2023-12-28T00:28:41;11.43;52.02
76384;SHT30;65204;48.606;7.598;2023-12-28T00:29:12;11.40;51.67
76384;SHT30;65204;48.606;7.598;2023-12-28T00:29:43;11.40;51.63
76384;SHT30;65204;48.606;7.598;2023-12-28T00:30:13;11.41;51.69
76384;SHT30;65204;48.606;7.598;2023-12-28T00:30:44;11.43;51.78
76384;SHT30;65204;48.606;7.598;2023-12-28T00:31:14;11.43;51.73
76384;SHT30;65204;48.606;7.598;2023-12-28T00:31:44;11.41;51.65
76384;SHT30;65204;48.606;7.598;2023-12-28T00:32:15;11.43;51.66
76384;SHT30;65204;48.606;7.598;2023-12-28T00:32:45;11.43;51.67
76384;SHT30;65204;48.606;7.598;2023-12-28T00:33:16;11.44;51.62
76384;SHT30;65204;48.606;7.598;2023-12-28T00:33:46;11.44;51.62
76384;SHT30;65204;48.606;7.598;2023-12-28T00:34:16;11.43;51.60
76384;SHT30;65204;48.606;7.598;2023-12-28T00:34:47;11.44;51.53
76384;SHT30;65204;48.606;7.598;2023-12-28T00:35:17;11.41;51.54
76384;SHT30;65204;48.606;7.598;2023-12-28T00:35:47;11.44;51.64
76384;SHT30;65204;48.606;7.598;2023-12-28T00:36:18;11.44;51.66
76384;SHT30;65204;48.606;7.598;2023-12-28T00:36:48;11.44;51.52
76384;SHT30;65204;48.606;7.598;2023-12-28T00:37:19;11.44;51.50
76384;SHT30;65204;48.606;7.598;2023-12-28T00:37:49;11.46;51.53
76384;SHT30;65204;48.606;7.598;2023-12-28T00:38:20;11.44;51.71
76384;SHT30;65204;48.606;7.598;2023-12-28T00:38:50;11.44;51.66
76384;SHT30;65204;48.606;7.598;2023-12-28T00:39:20;11.49;51.44
76384;SHT30;65204;48.606;7.598;2023-12-28T00:39:51;11.47;50.96
76384;SHT30;65204;48.606;7.598;2023-12-28T00:40:21;11.47;51.11
76384;SHT30;65204;48.606;7.598;2023-12-28T00:40:52;11.49;51.49
76384;SHT30;65204;48.606;7.598;2023-12-28T00:41:22;11.49;51.30
76384;SHT30;65204;48.606;7.598;2023-12-28T00:41:52;11.49;51.36
76384;SHT30;65204;48.606;7.598;2023-12-28T00:42:23;11.49;51.43
76384;SHT30;65204;48.606;7.598;2023-12-28T00:42:53;11.47;51.39
76384;SHT30;65204;48.606;7.598;2023-12-28T00:43:23;11.51;51.42
76384;SHT30;65204;48.606;7.598;2023-12-28T00:43:54;11.50;51.40
76384;SHT30;65204;48.606;7.598;2023-12-28T00:44:24;11.50;51.79
76384;SHT30;65204;48.606;7.598;2023-12-28T00:44:54;11.53;51.50
76384;SHT30;65204;48.606;7.598;2023-12-28T00:45:25;11.51;51.35
76384;SHT30;65204;48.606;7.598;2023-12-28T00:45:55;11.51;51.24
76384;SHT30;65204;48.606;7.598;2023-12-28T00:46:25;11.53;51.35
76384;SHT30;65204;48.606;7.598;2023-12-28T00:46:56;11.54;51.30
76384;SHT30;65204;48.606;7.598;2023-12-28T00:47:26;11.53;51.36
76384;SHT30;65204;48.606;7.598;2023-12-28T00:47:56;11.53;51.37
76384;SHT30;65204;48.606;7.598;2023-12-28T00:48:26;11.56;51.36
76384;SHT30;65204;48.606;7.598;2023-12-28T00:48:57;11.53;51.33
76384;SHT30;65204;48.606;7.598;2023-12-28T00:49:27;11.54;51.20
76384;SHT30;65204;48.606;7.598;2023-12-28T00:49:57;11.57;51.18
76384;SHT30;65204;48.606;7.598;2023-12-28T00:50:28;11.54;51.13
76384;SHT30;65204;48.606;7.598;2023-12-28T00:51:01;11.56;51.23
76384;SHT30;65204;48.606;7.598;2023-12-28T00:51:32;11.54;51.15
76384;SHT30;65204;48.606;7.598;2023-12-28T00:52:02;11.57;51.14
76384;SHT30;65204;48.606;7.598;2023-12-28T00:52:33;11.57;51.04
76384;SHT30;65204;48.606;7.598;2023-12-28T00:53:03;11.56;50.99
76384;SHT30;65204;48.606;7.598;2023-12-28T00:53:33;11.57;51.08
76384;SHT30;65204;48.606;7.598;2023-12-28T00:54:04;11.59;51.06
76384;SHT30;65204;48.606;7.598;2023-12-28T00:54:36;11.57;51.15
76384;SHT30;65204;48.606;7.598;2023-12-28T00:55:07;11.59;51.13
76384;SHT30;65204;48.606;7.598;2023-12-28T00:55:38;11.56;51.35
76384;SHT30;65204;48.606;7.598;2023-12-28T00:56:09;11.57;51.20
76384;SHT30;65204;48.606;7.598;2023-12-28T00:56:39;11.60;51.26
76384;SHT30;65204;48.606;7.598;2023-12-28T00:57:10;11.59;51.06
76384;SHT30;65204;48.606;7.598;2023-12-28T00:57:40;11.57;51.05
76384;SHT30;65204;48.606;7.598;2023-12-28T00:58:10;11.61;51.09
76384;SHT30;65204;48.606;7.598;2023-12-28T00:58:41;11.59;51.12
76384;SHT30;65204;48.606;7.598;2023-12-28T00:59:13;11.57;51.00
76384;SHT30;65204;48.606;7.598;2023-12-28T00:59:43;11.60;50.95
76384;SHT30;65204;48.606;7.598;2023-12-28T01:00:14;11.60;50.95
76384;SHT30;65204;48.606;7.598;2023-12-28T01:00:44;11.59;50.92
76384;SHT30;65204;48.606;7.598;2023-12-28T01:01:15;11.60;50.89
76384;SHT30;65204;48.606;7.598;2023-12-28T01:01:46;11.60;51.00
76384;SHT30;65204;48.606;7.598;2023-12-28T01:02:16;11.63;50.90
76384;SHT30;65204;48.606;7.598;2023-12-28T01:02:47;11.60;50.96
76384;SHT30;65204;48.606;7.598;2023-12-28T01:03:17;11.63;51.25
76384;SHT30;65204;48.606;7.598;2023-12-28T01:03:47;11.60;51.02
76384;SHT30;65204;48.606;7.598;2023-12-28T01:04:18;11.61;50.96
76384;SHT30;65204;48.606;7.598;2023-12-28T01:04:48;11.61;50.92
76384;SHT30;65204;48.606;7.598;2023-12-28T01:05:19;11.61;50.79
76384;SHT30;65204;48.606;7.598;2023-12-28T01:05:51;11.63;50.95
76384;SHT30;65204;48.606;7.598;2023-12-28T01:06:22;11.64;50.93
76384;SHT30;65204;48.606;7.598;2023-12-28T01:06:58;11.60;50.86
76384;SHT30;65204;48.606;7.598;2023-12-28T01:07:32;11.63;50.79
76384;SHT30;65204;48.606;7.598;2023-12-28T01:08:02;11.63;50.81
76384;SHT30;65204;48.606;7.598;2023-12-28T01:08:33;11.64;50.84
76384;SHT30;65204;48.606;7.598;2023-12-28T01:09:06;11.61;50.65
76384;SHT30;65204;48.606;7.598;2023-12-28T01:09:37;11.64;50.59
76384;SHT30;65204;48.606;7.598;2023-12-28T01:10:07;11.64;50.70
76384;SHT30;65204;48.606;7.598;2023-12-28T01:10:38;11.67;50.65
76384;SHT30;65204;48.606;7.598;2023-12-28T01:11:10;11.67;50.65
76384;SHT30;65204;48.606;7.598;2023-12-28T01:11:41;11.67;50.68
76384;SHT30;65204;48.606;7.598;2023-12-28T01:12:11;11.67;50.62
76384;SHT30;65204;48.606;7.598;2023-12-28T01:12:42;11.66;50.53
76384;SHT30;65204;48.606;7.598;2023-12-28T01:13:12;11.67;50.37
76384;SHT30;65204;48.606;7.598;2023-12-28T01:13:42;11.68;50.52
76384;SHT30;65204;48.606;7.598;2023-12-28T01:14:13;11.71;50.31
76384;SHT30;65204;48.606;7.598;2023-12-28T01:14:43;11.70;50.50
76384;SHT30;65204;48.606;7.598;2023-12-28T01:15:14;11.70;50.24
76384;SHT30;65204;48.606;7.598;2023-12-28T01:15:44;11.71;50.25
76384;SHT30;65204;48.606;7.598;2023-12-28T01:16:15;11.67;50.31
76384;SHT30;65204;48.606;7.598;2023-12-28T01:16:45;11.70;50.36
76384;SHT30;65204;48.606;7.598;2023-12-28T01:17:16;11.70;50.50
76384;SHT30;65204;48.606;7.598;2023-12-28T01:17:46;11.73;50.47
76384;SHT30;65204;48.606;7.598;2023-12-28T01:18:17;11.73;50.39
76384;SHT30;65204;48.606;7.598;2023-12-28T01:18:47;11.75;50.14
76384;SHT30;65204;48.606;7.598;2023-12-28T01:19:17;11.73;50.07
76384;SHT30;65204;48.606;7.598;2023-12-28T01:19:48;11.74;49.81
76384;SHT30;65204;48.606;7.598;2023-12-28T01:20:18;11.77;49.75
76384;SHT30;65204;48.606;7.598;2023-12-28T01:20:48;11.75;49.96
76384;SHT30;65204;48.606;7.598;2023-12-28T01:21:19;11.78;50.21
76384;SHT30;65204;48.606;7.598;2023-12-28T01:21:50;11.78;50.21
76384;SHT30;65204;48.606;7.598;2023-12-28T01:22:20;11.77;50.21
76384;SHT30;65204;48.606;7.598;2023-12-28T01:22:50;11.80;50.16
76384;SHT30;65204;48.606;7.598;2023-12-28T01:23:21;11.78;50.30
76384;SHT30;65204;48.606;7.598;2023-12-28T01:23:51;11.78;50.16
76384;SHT30;65204;48.606;7.598;2023-12-28T01:24:22;11.82;50.04
76384;SHT30;65204;48.606;7.598;2023-12-28T01:24:52;11.84;50.05
76384;SHT30;65204;48.606;7.598;2023-12-28T01:25:23;11.84;50.09
76384;SHT30;65204;48.606;7.598;2023-12-28T01:25:55;11.84;49.73
76384;SHT30;65204;48.606;7.598;2023-12-28T01:26:26;11.84;49.72
76384;SHT30;65204;48.606;7.598;2023-12-28T01:26:56;11.84;49.92
76384;SHT30;65204;48.606;7.598;2023-12-28T01:27:27;11.85;50.12
76384;SHT30;65204;48.606;7.598;2023-12-28T01:27:57;11.85;49.97
76384;SHT30;65204;48.606;7.598;2023-12-28T01:28:28;11.84;50.07
76384;SHT30;65204;48.606;7.598;2023-12-28T01:28:58;11.87;50.15
76384;SHT30;65204;48.606;7.598;2023-12-28T01:29:31;11.85;49.91
76384;SHT30;65204;48.606;7.598;2023-12-28T01:30:03;11.88;49.68
76384;SHT30;65204;48.606;7.598;2023-12-28T01:30:33;11.88;49.65
76384;SHT30;65204;48.606;7.598;2023-12-28T01:31:04;11.92;49.74
76384;SHT30;65204;48.606;7.598;2023-12-28T01:31:34;11.91;49.73
76384;SHT30;65204;48.606;7.598;2023-12-28T01:32:05;11.92;50.07
76384;SHT30;65204;48.606;7.598;2023-12-28T01:32:35;11.91;49.88
76384;SHT30;65204;48.606;7.598;2023-12-28T01:33:06;11.92;49.57
76384;SHT30;65204;48.606;7.598;2023-12-28T01:33:36;11.92;49.68
76384;SHT30;65204;48.606;7.598;2023-12-28T01:34:06;11.92;49.76
76384;SHT30;65204;48.606;7.598;2023-12-28T01:34:39;11.91;49.94
76384;SHT30;65204;48.606;7.598;2023-12-28T01:35:11;11.92;49.84
76384;SHT30;65204;48.606;7.598;2023-12-28T01:35:41;11.95;49.79
76384;SHT30;65204;48.606;7.598;2023-12-28T01:36:19;11.91;49.68
76384;SHT30;65204;48.606;7.598;2023-12-28T01:36:49;11.94;49.67
76384;SHT30;65204;48.606;7.598;2023-12-28T01:37:20;11.94;49.72
76384;SHT30;65204;48.606;7.598;2023-12-28T01:37:50;11.94;49.90
76384;SHT30;65204;48.606;7.598;2023-12-28T01:38:20;11.94;49.87
76384;SHT30;65204;48.606;7.598;2023-12-28T01:38:51;11.94;49.78
76384;SHT30;65204;48.606;7.598;2023-12-28T01:39:21;11.92;49.85
76384;SHT30;65204;48.606;7.598;2023-12-28T01:39:52;11.97;49.78
76384;SHT30;65204;48.606;7.598;2023-12-28T01:40:22;11.98;49.77
76384;SHT30;65204;48.606;7.598;2023-12-28T01:40:53;11.95;49.89
76384;SHT30;65204;48.606;7.598;2023-12-28T01:41:23;11.98;49.93
76384;SHT30;65204;48.606;7.598;2023-12-28T01:41:53;12.01;50.15
76384;SHT30;65204;48.606;7.598;2023-12-28T01:42:24;11.95;50.00
76384;SHT30;65204;48.606;7.598;2023-12-28T01:42:54;11.99;50.06
76384;SHT30;65204;48.606;7.598;2023-12-28T01:43:24;11.97;49.91
76384;SHT30;65204;48.606;7.598;2023-12-28T01:43:55;11.98;49.86
76384;SHT30;65204;48.606;7.598;2023-12-28T01:44:25;11.98;50.04
76384;SHT30;65204;48.606;7.598;2023-12-28T01:44:57;11.99;49.93
76384;SHT30;65204;48.606;7.598;2023-12-28T01:45:27;12.01;50.09
76384;SHT30;65204;48.606;7.598;2023-12-28T01:45:58;11.98;49.95
76384;SHT30;65204;48.606;7.598;2023-12-28T01:46:29;11.98;49.89
76384;SHT30;65204;48.606;7.598;2023-12-28T01:46:59;11.99;49.96
76384;SHT30;65204;48.606;7.598;2023-12-28T01:47:30;11.99;49.94
76384;SHT30;65204;48.606;7.598;2023-12-28T01:48:01;12.01;49.82
76384;SHT30;65204;48.606;7.598;2023-12-28T01:48:32;11.99;49.75
76384;SHT30;65204;48.606;7.598;2023-12-28T01:49:03;12.01;49.86
76384;SHT30;65204;48.606;7.598;2023-12-28T01:49:34;12.01;49.81
76384;SHT30;65204;48.606;7.598;2023-12-28T01:50:06;11.98;49.74
76384;SHT30;65204;48.606;7.598;2023-12-28T01:50:37;11.99;49.79
76384;SHT30;65204;48.606;7.598;2023-12-28T01:51:07;11.99;49.78
76384;SHT30;65204;48.606;7.598;2023-12-28T01:51:38;12.04;49.92
76384;SHT30;65204;48.606;7.598;2023-12-28T01:52:09;12.02;49.81
76384;SHT30;65204;48.606;7.598;2023-12-28T01:52:40;12.01;49.70
76384;SHT30;65204;48.606;7.598;2023-12-28T01:53:11;12.04;49.74
76384;SHT30;65204;48.606;7.598;2023-12-28T01:53:43;12.04;49.76
76384;SHT30;65204;48.606;7.598;2023-12-28T01:54:15;12.01;49.80
76384;SHT30;65204;48.606;7.598;2023-12-28T01:54:47;12.02;49.78
76384;SHT30;65204;48.606;7.598;2023-12-28T01:55:19;12.02;49.99
76384;SHT30;65204;48.606;7.598;2023-12-28T01:55:51;12.04;50.15
76384;SHT30;65204;48.606;7.598;2023-12-28T01:56:22;12.02;50.16
76384;SHT30;65204;48.606;7.598;2023-12-28T01:56:53;12.05;50.01
76384;SHT30;65204;48.606;7.598;2023-12-28T01:57:24;12.01;49.93
76384;SHT30;65204;48.606;7.598;2023-12-28T01:57:55;12.04;49.89
76384;SHT30;65204;48.606;7.598;2023-12-28T01:58:28;12.05;50.01
76384;SHT30;65204;48.606;7.598;2023-12-28T01:58:59;12.04;49.93
76384;SHT30;65204;48.606;7.598;2023-12-28T01:59:30;12.05;49.95
76384;SHT30;65204;48.606;7.598;2023-12-28T02:00:03;12.02;49.94
76384;SHT30;65204;48.606;7.598;2023-12-28T02:00:34;12.04;50.01
76384;SHT30;65204;48.606;7.598;2023-12-28T02:01:07;12.02;49.99
76384;SHT30;65204;48.606;7.598;2023-12-28T02:01:37;12.05;49.97
76384;SHT30;65204;48.606;7.598;2023-12-28T02:02:08;12.04;49.94
76384;SHT30;65204;48.606;7.598;2023-12-28T02:02:38;12.04;49.94
76384;SHT30;65204;48.606;7.598;2023-12-28T02:03:09;12.04;49.86
76384;SHT30;65204;48.606;7.598;2023-12-28T02:03:40;12.05;49.89
76384;SHT30;65204;48.606;7.598;2023-12-28T02:04:11;12.06;49.76
76384;SHT30;65204;48.606;7.598;2023-12-28T02:04:41;12.08;49.84
76384;SHT30;65204;48.606;7.598;2023-12-28T02:05:12;12.08;49.79
76384;SHT30;65204;48.606;7.598;2023-12-28T02:05:42;12.06;49.98
76384;SHT30;65204;48.606;7.598;2023-12-28T02:06:14;12.08;49.79
76384;SHT30;65204;48.606;7.598;2023-12-28T02:06:46;12.05;49.81
76384;SHT30;65204;48.606;7.598;2023-12-28T02:07:16;12.06;49.76
76384;SHT30;65204;48.606;7.598;2023-12-28T02:07:48;12.08;49.78
76384;SHT30;65204;48.606;7.598;2023-12-28T02:08:18;12.06;49.84
76384;SHT30;65204;48.606;7.598;2023-12-28T02:08:48;12.08;49.85
76384;SHT30;65204;48.606;7.598;2023-12-28T02:09:19;12.08;49.83
76384;SHT30;65204;48.606;7.598;2023-12-28T02:09:49;12.06;49.68
76384;SHT30;65204;48.606;7.598;2023-12-28T02:10:20;12.06;49.69
76384;SHT30;65204;48.606;7.598;2023-12-28T02:10:50;12.08;49.90
76384;SHT30;65204;48.606;7.598;2023-12-28T02:11:20;12.10;50.06
76384;SHT30;65204;48.606;7.598;2023-12-28T02:11:52;12.11;49.98
76384;SHT30;65204;48.606;7.598;2023-12-28T02:12:22;12.12;50.09
76384;SHT30;65204;48.606;7.598;2023-12-28T02:12:53;12.11;49.85
76384;SHT30;65204;48.606;7.598;2023-12-28T02:13:25;12.14;49.99
76384;SHT30;65204;48.606;7.598;2023-12-28T02:13:56;12.14;49.92
76384;SHT30;65204;48.606;7.598;2023-12-28T02:14:26;12.14;49.79
76384;SHT30;65204;48.606;7.598;2023-12-28T02:14:57;12.14;50.01
76384;SHT30;65204;48.606;7.598;2023-12-28T02:15:27;12.15;49.88
76384;SHT30;65204;48.606;7.598;2023-12-28T02:16:13;12.14;49.53
76384;SHT30;65204;48.606;7.598;2023-12-28T02:17:34;12.10;49.70
76384;SHT30;65204;48.606;7.598;2023-12-28T02:18:12;12.10;50.41
76384;SHT30;65204;48.606;7.598;2023-12-28T02:18:48;12.11;50.14
76384;SHT30;65204;48.606;7.598;2023-12-28T02:20:18;12.08;49.92
76384;SHT30;65204;48.606;7.598;2023-12-28T02:20:49;12.06;49.94
76384;SHT30;65204;48.606;7.598;2023-12-28T02:21:20;12.08;50.03
76384;SHT30;65204;48.606;7.598;2023-12-28T02:21:52;12.12;50.09
76384;SHT30;65204;48.606;7.598;2023-12-28T02:22:26;12.14;49.95
76384;SHT30;65204;48.606;7.598;2023-12-28T02:22:56;12.12;49.92
76384;SHT30;65204;48.606;7.598;2023-12-28T02:23:27;12.14;50.23
76384;SHT30;65204;48.606;7.598;2023-12-28T02:23:57;12.18;50.15
76384;SHT30;65204;48.606;7.598;2023-12-28T02:24:28;12.17;50.21
76384;SHT30;65204;48.606;7.598;2023-12-28T02:25:37;12.18;49.83
76384;SHT30;65204;48.606;7.598;2023-12-28T02:26:08;12.21;49.91
76384;SHT30;65204;48.606;7.598;2023-12-28T02:26:38;12.21;50.19
76384;SHT30;65204;48.606;7.598;2023-12-28T02:27:08;12.21;50.11
76384;SHT30;65204;48.606;7.598;2023-12-28T02:27:42;12.21;49.88
76384;SHT30;65204;48.606;7.598;2023-12-28T02:28:13;12.22;49.72
76384;SHT30;65204;48.606;7.598;2023-12-28T02:28:46;12.25;49.83
76384;SHT30;65204;48.606;7.598;2023-12-28T02:29:19;12.25;49.92
76384;SHT30;65204;48.606;7.598;2023-12-28T02:29:49;12.25;49.88
76384;SHT30;65204;48.606;7.598;2023-12-28T02:30:21;12.28;49.89
76384;SHT30;65204;48.606;7.598;2023-12-28T02:30:52;12.28;49.91
76384;SHT30;65204;48.606;7.598;2023-12-28T02:31:37;12.28;49.75
76384;SHT30;65204;48.606;7.598;2023-12-28T02:32:09;12.28;49.61
76384;SHT30;65204;48.606;7.598;2023-12-28T02:33:55;12.28;49.86
76384;SHT30;65204;48.606;7.598;2023-12-28T02:34:29;12.26;49.90
76384;SHT30;65204;48.606;7.598;2023-12-28T02:35:16;12.26;49.79
76384;SHT30;65204;48.606;7.598;2023-12-28T02:35:52;12.28;49.94
76384;SHT30;65204;48.606;7.598;2023-12-28T02:36:26;12.28;49.93
76384;SHT30;65204;48.606;7.598;2023-12-28T02:36:57;12.29;49.91
76384;SHT30;65204;48.606;7.598;2023-12-28T02:37:29;12.29;49.91
76384;SHT30;65204;48.606;7.598;2023-12-28T02:38:04;12.32;49.67
76384;SHT30;65204;48.606;7.598;2023-12-28T02:38:36;12.32;49.78
76384;SHT30;65204;48.606;7.598;2023-12-28T02:39:08;12.35;50.15
76384;SHT30;65204;48.606;7.598;2023-12-28T02:39:41;12.38;50.40
76384;SHT30;65204;48.606;7.598;2023-12-28T02:40:14;12.36;50.63
76384;SHT30;65204;48.606;7.598;2023-12-28T02:40:45;12.39;50.28
76384;SHT30;65204;48.606;7.598;2023-12-28T02:41:18;12.41;49.98
76384;SHT30;65204;48.606;7.598;2023-12-28T02:41:48;12.43;49.96
76384;SHT30;65204;48.606;7.598;2023-12-28T02:42:19;12.42;50.04
76384;SHT30;65204;48.606;7.598;2023-12-28T02:42:49;12.42;49.96
76384;SHT30;65204;48.606;7.598;2023-12-28T02:43:20;12.46;50.11
76384;SHT30;65204;48.606;7.598;2023-12-28T02:43:50;12.42;49.97
76384;SHT30;65204;48.606;7.598;2023-12-28T02:44:21;12.46;50.06
76384;SHT30;65204;48.606;7.598;2023-12-28T02:44:51;12.49;50.35
76384;SHT30;65204;48.606;7.598;2023-12-28T02:45:22;12.48;50.23
76384;SHT30;65204;48.606;7.598;2023-12-28T02:45:52;12.50;50.56
76384;SHT30;65204;48.606;7.598;2023-12-28T02:46:22;12.49;50.52
76384;SHT30;65204;48.606;7.598;2023-12-28T02:46:53;12.50;50.21
76384;SHT30;65204;48.606;7.598;2023-12-28T02:47:23;12.52;50.08
76384;SHT30;65204;48.606;7.598;2023-12-28T02:47:53;12.53;50.32
76384;SHT30;65204;48.606;7.598;2023-12-28T02:48:24;12.52;50.65
76384;SHT30;65204;48.606;7.598;2023-12-28T02:48:55;12.56;50.40
76384;SHT30;65204;48.606;7.598;2023-12-28T02:49:27;12.57;50.32
76384;SHT30;65204;48.606;7.598;2023-12-28T02:49:57;12.56;50.23
76384;SHT30;65204;48.606;7.598;2023-12-28T02:50:29;12.56;50.28
76384;SHT30;65204;48.606;7.598;2023-12-28T02:51:02;12.59;50.12
76384;SHT30;65204;48.606;7.598;2023-12-28T02:51:33;12.57;50.18
76384;SHT30;65204;48.606;7.598;2023-12-28T02:52:03;12.60;50.25
76384;SHT30;65204;48.606;7.598;2023-12-28T02:52:34;12.59;50.32
76384;SHT30;65204;48.606;7.598;2023-12-28T02:53:04;12.63;50.48
76384;SHT30;65204;48.606;7.598;2023-12-28T02:53:35;12.62;50.39
76384;SHT30;65204;48.606;7.598;2023-12-28T02:54:05;12.63;50.41
76384;SHT30;65204;48.606;7.598;2023-12-28T02:54:35;12.62;50.45
76384;SHT30;65204;48.606;7.598;2023-12-28T02:55:06;12.63;50.24
76384;SHT30;65204;48.606;7.598;2023-12-28T02:55:36;12.63;50.30
76384;SHT30;65204;48.606;7.598;2023-12-28T02:56:07;12.66;50.27
76384;SHT30;65204;48.606;7.598;2023-12-28T02:56:40;12.67;50.29
76384;SHT30;65204;48.606;7.598;2023-12-28T02:57:11;12.67;50.28
76384;SHT30;65204;48.606;7.598;2023-12-28T02:57:43;12.67;50.29
76384;SHT30;65204;48.606;7.598;2023-12-28T02:58:14;12.67;50.37
76384;SHT30;65204;48.606;7.598;2023-12-28T02:58:44;12.70;50.42
76384;SHT30;65204;48.606;7.598;2023-12-28T02:59:15;12.69;50.39
76384;SHT30;65204;48.606;7.598;2023-12-28T02:59:45;12.70;50.51
76384;SHT30;65204;48.606;7.598;2023-12-28T03:00:16;12.72;50.52
76384;SHT30;65204;48.606;7.598;2023-12-28T03:00:46;12.70;50.48
76384;SHT30;65204;48.606;7.598;2023-12-28T03:01:18;12.70;50.48
76384;SHT30;65204;48.606;7.598;2023-12-28T03:01:49;12.73;50.39
76384;SHT30;65204;48.606;7.598;2023-12-28T03:02:19;12.72;50.39
76384;SHT30;65204;48.606;7.598;2023-12-28T03:02:49;12.75;50.48
76384;SHT30;65204;48.606;7.598;2023-12-28T03:03:20;12.76;50.52
76384;SHT30;65204;48.606;7.598;2023-12-28T03:03:50;12.77;50.57
76384;SHT30;65204;48.606;7.598;2023-12-28T03:04:21;12.75;50.57
76384;SHT30;65204;48.606;7.598;2023-12-28T03:04:51;12.77;50.61
76384;SHT30;65204;48.606;7.598;2023-12-28T03:05:21;12.77;50.79
76384;SHT30;65204;48.606;7.598;2023-12-28T03:05:51;12.77;51.02
76384;SHT30;65204;48.606;7.598;2023-12-28T03:06:22;12.79;51.10
76384;SHT30;65204;48.606;7.598;2023-12-28T03:06:52;12.80;51.02
76384;SHT30;65204;48.606;7.598;2023-12-28T03:07:22;12.80;51.14
76384;SHT30;65204;48.606;7.598;2023-12-28T03:07:53;12.80;51.02
76384;SHT30;65204;48.606;7.598;2023-12-28T03:08:25;12.84;51.15
76384;SHT30;65204;48.606;7.598;2023-12-28T03:08:55;12.82;51.14
76384;SHT30;65204;48.606;7.598;2023-12-28T03:09:26;12.83;51.17
76384;SHT30;65204;48.606;7.598;2023-12-28T03:09:56;12.83;51.21
76384;SHT30;65204;48.606;7.598;2023-12-28T03:10:27;12.86;51.27
76384;SHT30;65204;48.606;7.598;2023-12-28T03:10:57;12.89;51.31
76384;SHT30;65204;48.606;7.598;2023-12-28T03:11:27;12.86;51.27
76384;SHT30;65204;48.606;7.598;2023-12-28T03:11:58;12.89;51.28
76384;SHT30;65204;48.606;7.598;2023-12-28T03:12:29;12.87;51.34
76384;SHT30;65204;48.606;7.598;2023-12-28T03:12:59;12.89;51.38
76384;SHT30;65204;48.606;7.598;2023-12-28T03:13:31;12.92;51.37
76384;SHT30;65204;48.606;7.598;2023-12-28T03:14:02;12.93;51.30
76384;SHT30;65204;48.606;7.598;2023-12-28T03:14:32;12.93;51.28
76384;SHT30;65204;48.606;7.598;2023-12-28T03:15:04;12.93;51.34
76384;SHT30;65204;48.606;7.598;2023-12-28T03:15:34;12.93;51.39
76384;SHT30;65204;48.606;7.598;2023-12-28T03:16:05;12.94;51.53
76384;SHT30;65204;48.606;7.598;2023-12-28T03:16:35;12.94;51.37
76384;SHT30;65204;48.606;7.598;2023-12-28T03:17:06;12.97;51.31
76384;SHT30;65204;48.606;7.598;2023-12-28T03:17:36;12.96;51.23
76384;SHT30;65204;48.606;7.598;2023-12-28T03:18:06;12.99;51.19
76384;SHT30;65204;48.606;7.598;2023-12-28T03:18:37;13.00;51.41
76384;SHT30;65204;48.606;7.598;2023-12-28T03:19:08;12.99;51.40